KB3HHA Weather Reports


Display with metric or nautical units.
time (UTC)temp
F
wind
direction
speed
MPH
gust
MPH
rain 1hr
in
rain 24hr
in
rain mn
in
humidity
%
barometer
mb
20180721205200 65 315 0.0 3.0 0.18 1.22 1.22 97 1009.8
20180721204700 65 315 0.0 5.0 0.14 1.18 1.18 97 1009.7
20180721204200 65 292 1.0 5.0 0.11 1.15 1.15 97 1009.9
20180721203913 65 315 0.0 3.0 0.08 1.12 1.12 97 1009.9
20180721203411 65 315 0.0 0.0 0.07 1.11 1.11 96 1009.9
20180721202914 65 315 0.0 0.0 0.05 1.09 1.09 97 1010.1
20180721202200 65 337 0.0 0.0 0.04 1.08 1.08 97 1010.1
20180721201700 65 337 0.0 2.0 0.03 1.07 1.07 97 1010.0
20180721201200 65 315 0.0 2.0 0.02 1.06 1.06 97 1010.1
20180721200700 65 292 0.0 0.0 0.01 1.05 1.05 96 1010.2
20180721200201 65 315 0.0 0.0 0.01 1.05 1.05 96 1010.3
20180721195700 65 337 0.0 0.0 0.19 1.04 1.04 96 1010.4
20180721195200 65 337 0.0 0.0 0.19 1.04 1.04 96 1010.5
20180721194700 65 292 0.0 0.0 0.18 1.03 1.03 96 1010.6
20180721194200 65 292 0.0 3.0 0.17 1.02 1.02 96 1010.6
20180721193700 65 67 1.0 3.0 0.16 1.01 1.01 96 1010.7
20180721193200 65 315 0.0 0.0 0.14 0.99 0.99 96 1010.8
20180721192700 65 180 0.0 0.0 0.13 0.98 0.98 96 1010.9
20180721192200 65 315 0.0 2.0 0.12 0.97 0.97 96 1011.0
20180721191700 65 315 0.0 2.0 0.09 0.94 0.94 96 1011.1
20180721191200 65 315 0.0 1.0 0.06 0.91 0.91 96 1011.1
20180721190700 65 337 0.0 0.0 0.03 0.88 0.88 96 1011.2
20180721190202 65 0 0.0 0.0 0.01 0.86 0.86 96 1011.3
20180721185700 65 0 0.0 0.0 0.07 0.84 0.84 96 1011.4
20180721185200 65 337 0.0 0.0 0.06 0.83 0.83 96 1011.5
20180721184700 65 315 0.0 0.0 0.06 0.83 0.83 96 1011.6
20180721184200 65 0 0.0 0.0 0.05 0.82 0.82 96 1011.7
20180721183700 65 337 0.0 4.0 0.05 0.82 0.82 96 1011.7
20180721183200 65 315 1.0 4.0 0.04 0.81 0.81 96 1011.8
20180721182700 65 292 1.0 4.0 0.03 0.80 0.80 96 1011.9
20180721182200 65 292 1.0 3.0 0.03 0.80 0.80 96 1012.0
20180721181700 65 315 0.0 0.0 0.02 0.79 0.79 96 1012.2
20180721181201 65 337 0.0 0.0 0.02 0.79 0.79 96 1012.2
20180721180700 65 270 0.0 0.0 0.01 0.78 0.78 95 1012.3
20180721180410 65 292 0.0 0.0 0.00 0.77 0.77 95 1012.4
20180721175913 65 315 0.0 0.0 0.43 0.76 0.76 95 1012.5
20180721175200 66 337 0.0 0.0 0.42 0.75 0.75 95 1012.6
20180721174700 66 315 0.0 2.0 0.41 0.74 0.74 95 1012.7
20180721174412 66 337 0.0 2.0 0.40 0.73 0.73 95 1012.7
20180721173700 66 180 0.0 3.0 0.37 0.70 0.70 95 1012.7
20180721173413 67 0 0.0 3.0 0.34 0.67 0.67 95 1013.0
20180721172700 67 0 1.0 5.0 0.30 0.63 0.63 95 1013.1
20180721172200 67 0 0.0 5.0 0.26 0.59 0.59 95 1013.1
20180721171700 67 337 0.0 2.0 0.21 0.54 0.54 95 1013.1
20180721171200 68 337 0.0 2.0 0.16 0.49 0.49 95 1013.1
20180721170700 68 337 0.0 1.0 0.09 0.42 0.42 95 1013.2
20180721170200 68 315 0.0 1.0 0.02 0.35 0.35 95 1013.2
20180721165700 68 315 0.0 1.0 0.20 0.30 0.30 95 1013.3
20180721165200 68 337 0.0 1.0 0.16 0.26 0.26 95 1013.3
20180721164700 68 0 0.0 1.0 0.11 0.21 0.21 95 1013.4
20180721164200 68 0 0.0 1.0 0.08 0.18 0.18 95 1013.4
20180721163700 68 0 0.0 0.0 0.06 0.16 0.16 95 1013.5
20180721163200 68 0 0.0 0.0 0.04 0.14 0.14 95 1013.6
20180721162911 68 0 0.0 0.0 0.03 0.13 0.13 95 1013.6
20180721162200 68 0 0.0 0.0 0.03 0.13 0.13 95 1013.7
20180721161700 68 0 0.0 0.0 0.02 0.12 0.12 95 1013.7
20180721161200 68 0 0.0 1.0 0.01 0.11 0.11 94 1013.7
20180721160700 68 0 0.0 1.0 0.01 0.11 0.11 94 1013.7
20180721160200 68 0 0.0 1.0 0.01 0.11 0.11 94 1013.9
20180721155700 68 0 0.0 0.0 0.08 0.09 0.09 94 1014.0
20180721155200 68 0 0.0 0.0 0.06 0.07 0.07 94 1014.0
20180721154700 68 0 0.0 1.0 0.05 0.06 0.06 94 1014.1
20180721154200 68 0 0.0 1.0 0.04 0.05 0.05 93 1014.2
20180721153700 67 0 0.0 1.0 0.03 0.04 0.04 93 1014.2
20180721153200 68 0 0.0 1.0 0.03 0.04 0.04 92 1014.3
20180721152700 68 337 0.0 1.0 0.03 0.04 0.04 92 1014.3
20180721152200 68 202 0.0 1.0 0.02 0.03 0.03 91 1014.4
20180721151700 68 225 0.0 1.0 0.02 0.03 0.03 92 1014.6
20180721151200 69 180 0.0 1.0 0.02 0.03 0.03 91 1014.6
20180721150700 69 225 0.0 0.0 0.01 0.02 0.02 91 1014.6
20180721150200 69 225 0.0 0.0 0.01 0.02 0.02 90 1014.6
20180721145701 69 225 0.0 0.0 0.01 0.01 0.01 89 1014.7
20180721145200 69 202 0.0 1.0 0.01 0.01 0.01 90 1014.7
20180721144700 70 0 0.0 3.0 0.01 0.01 0.01 89 1014.6
20180721144200 70 202 0.0 4.0 0.01 0.01 0.01 89 1014.5
20180721143700 70 180 0.0 4.0 0.01 0.01 0.01 88 1014.5
20180721143201 71 225 1.0 4.0 0.00 0.00 0.00 88 1014.4
20180721142913 72 180 0.0 3.0 0.00 0.00 0.00 88 1014.4
20180721142411 72 0 0.0 4.0 0.00 0.00 0.00 87 1014.4
20180721141700 73 157 0.0 4.0 0.00 0.00 0.00 87 1014.2
20180721141200 73 225 0.0 0.0 0.00 0.00 0.00 88 1014.2
20180721140700 73 225 0.0 0.0 0.00 0.00 0.00 87 1014.2
20180721140200 73 0 0.0 0.0 0.00 0.00 0.00 87 1014.3
20180721135700 73 0 0.0 0.0 0.00 0.00 0.00 86 1014.3
20180721135200 73 337 0.0 0.0 0.00 0.00 0.00 87 1014.4
20180721134700 73 337 0.0 0.0 0.00 0.00 0.00 88 1014.5
20180721134200 73 337 0.0 0.0 0.00 0.00 0.00 88 1014.4
20180721133912 73 225 0.0 0.0 0.00 0.00 0.00 88 1014.5
20180721133200 72 45 0.0 0.0 0.00 0.00 0.00 88 1014.6
20180721132700 72 202 0.0 0.0 0.00 0.00 0.00 88 1014.6
20180721132200 72 180 0.0 0.0 0.00 0.00 0.00 88 1014.5
20180721131700 72 180 0.0 0.0 0.00 0.00 0.00 89 1014.5
20180721131200 72 180 0.0 0.0 0.00 0.00 0.00 88 1014.6
20180721130700 72 202 0.0 0.0 0.00 0.00 0.00 88 1014.5
20180721130200 72 180 0.0 0.0 0.00 0.00 0.00 88 1014.4
20180721125700 72 180 0.0 0.0 0.00 0.00 0.00 88 1014.3
20180721125414 72 202 0.0 0.0 0.00 0.00 0.00 88 1014.3
20180721124700 72 225 0.0 0.0 0.00 0.00 0.00 88 1014.5
20180721124200 72 202 0.0 2.0 0.00 0.00 0.00 88 1014.5
20180721123700 72 202 0.0 2.0 0.00 0.00 0.00 88 1014.5
20180721123411 71 0 0.0 0.0 0.00 0.00 0.00 88 1014.5
20180721122701 71 0 0.0 0.0 0.00 0.00 0.00 88 1014.4
20180721122200 71 225 0.0 0.0 0.00 0.00 0.00 88 1014.5
20180721121700 71 202 0.0 0.0 0.00 0.00 0.00 88 1014.5
20180721121200 71 225 0.0 0.0 0.00 0.00 0.00 88 1014.6
20180721120700 71 157 0.0 0.0 0.00 0.00 0.00 88 1014.5
20180721120201 71 225 0.0 0.0 0.00 0.00 0.00 88 1014.4
20180721115700 71 202 0.0 0.0 0.00 0.00 0.00 88 1014.4
20180721115200 71 180 0.0 0.0 0.00 0.00 0.00 88 1014.5
20180721114700 70 180 0.0 0.0 0.00 0.00 0.00 89 1014.4
20180721114200 70 315 0.0 0.0 0.00 0.00 0.00 89 1014.3
20180721113701 70 315 0.0 0.0 0.00 0.00 0.00 89 1014.2
20180721113201 70 315 0.0 0.0 0.00 0.00 0.00 89 1014.3
20180721112700 70 180 0.0 0.0 0.00 0.00 0.00 89 1014.5
20180721112200 69 180 0.0 0.0 0.00 0.00 0.00 90 1014.5
20180721111700 69 180 0.0 0.0 0.00 0.00 0.00 90 1014.5
20180721111201 69 180 0.0 0.0 0.00 0.00 0.00 90 1014.6
20180721110701 69 180 0.0 0.0 0.00 0.00 0.00 90 1014.5
20180721110200 69 180 0.0 0.0 0.00 0.00 0.00 90 1014.3
20180721105700 69 180 0.0 0.0 0.00 0.00 0.00 90 1014.3
20180721105201 69 180 0.0 0.0 0.00 0.00 0.00 89 1014.4
20180721104700 69 180 0.0 0.0 0.00 0.00 0.00 89 1014.5
20180721104200 69 180 0.0 0.0 0.00 0.00 0.00 89 1014.6
20180721103701 69 180 0.0 0.0 0.00 0.00 0.00 89 1014.5
20180721103412 69 180 0.0 0.0 0.00 0.00 0.00 89 1014.6
20180721102700 69 180 0.0 0.0 0.00 0.00 0.00 89 1014.6
20180721102200 69 180 0.0 0.0 0.00 0.00 0.00 89 1014.5
20180721101700 69 180 0.0 0.0 0.00 0.00 0.00 89 1014.6
20180721101201 69 202 0.0 0.0 0.00 0.00 0.00 89 1014.5
20180721100700 69 225 0.0 0.0 0.00 0.00 0.00 88 1014.6
20180721100410 69 225 0.0 0.0 0.00 0.00 0.00 88 1014.4
20180721095700 69 225 0.0 0.0 0.00 0.00 0.00 88 1014.5
20180721095200 69 180 0.0 0.0 0.00 0.00 0.00 88 1014.5
20180721094701 69 135 0.0 0.0 0.00 0.00 0.00 88 1014.5
20180721094200 69 157 0.0 0.0 0.00 0.00 0.00 88 1014.6
20180721093700 69 202 0.0 0.0 0.00 0.00 0.00 88 1014.6
20180721093200 69 270 0.0 0.0 0.00 0.00 0.00 88 1014.5
20180721092700 69 270 0.0 0.0 0.00 0.00 0.00 87 1014.5
20180721092201 69 270 0.0 0.0 0.00 0.00 0.00 87 1014.6
20180721091701 69 270 0.0 0.0 0.00 0.00 0.00 87 1014.6
20180721091200 69 225 0.0 0.0 0.00 0.00 0.00 87 1014.6
20180721090700 69 225 0.0 0.0 0.00 0.00 0.00 87 1014.6
20180721090200 69 225 0.0 0.0 0.00 0.00 0.00 87 1014.6
20180721085700 69 225 0.0 0.0 0.00 0.00 0.00 87 1014.7
20180721085200 69 225 0.0 0.0 0.00 0.00 0.00 87 1014.8
20180721084915 69 225 0.0 0.0 0.00 0.00 0.00 86 1014.9
20180721084201 69 225 0.0 0.0 0.00 0.00 0.00 86 1015.1
20180721083700 70 225 0.0 0.0 0.00 0.00 0.00 85 1015.1
20180721083200 70 225 0.0 0.0 0.00 0.00 0.00 85 1015.2
20180721082700 70 225 0.0 0.0 0.00 0.00 0.00 84 1015.1
20180721082200 70 225 0.0 0.0 0.00 0.00 0.00 84 1015.0
20180721081700 70 225 0.0 0.0 0.00 0.00 0.00 84 1014.9
20180721081200 71 225 0.0 0.0 0.00 0.00 0.00 84 1014.9
20180721080700 71 225 0.0 0.0 0.00 0.00 0.00 84 1015.0
20180721080200 71 225 0.0 0.0 0.00 0.00 0.00 84 1015.2
20180721075700 71 225 0.0 0.0 0.00 0.00 0.00 83 1015.3
20180721075200 71 225 0.0 0.0 0.00 0.00 0.00 83 1015.3
20180721074910 71 225 0.0 0.0 0.00 0.00 0.00 83 1015.3
20180721074200 71 225 0.0 0.0 0.00 0.00 0.00 84 1015.4
20180721073700 71 225 0.0 0.0 0.00 0.00 0.00 83 1015.5
20180721073414 71 225 0.0 0.0 0.00 0.00 0.00 83 1015.5
20180721072701 71 225 0.0 0.0 0.00 0.00 0.00 83 1015.6
20180721072200 71 225 0.0 0.0 0.00 0.00 0.00 83 1015.6
20180721071700 71 225 0.0 0.0 0.00 0.00 0.00 83 1015.7
20180721071200 71 225 0.0 0.0 0.00 0.00 0.00 83 1015.7
20180721070700 71 225 0.0 0.0 0.00 0.00 0.00 82 1015.7
20180721070200 71 225 0.0 0.0 0.00 0.00 0.00 82 1015.7
20180721065700 71 202 0.0 0.0 0.00 0.00 0.00 81 1015.7
20180721065413 71 180 0.0 0.0 0.00 0.00 0.00 81 1015.9
20180721064700 72 202 0.0 0.0 0.00 0.00 0.00 81 1015.9
20180721064414 72 225 0.0 0.0 0.00 0.00 0.00 81 1016.0
20180721063700 72 202 0.0 0.0 0.00 0.00 0.00 80 1016.0
20180721063410 72 225 0.0 0.0 0.00 0.00 0.00 80 1016.0
20180721062700 72 225 0.0 0.0 0.00 0.00 0.00 80 1016.0
20180721062200 72 225 0.0 0.0 0.00 0.00 0.00 80 1016.0
20180721061914 72 225 0.0 0.0 0.00 0.00 0.00 80 1016.0
20180721061200 72 225 0.0 0.0 0.00 0.00 0.00 80 1016.0
20180721060700 72 225 0.0 0.0 0.00 0.00 0.00 79 1016.1
20180721060200 72 225 0.0 0.0 0.00 0.00 0.00 79 1016.2
20180721055700 72 225 0.0 0.0 0.00 0.00 0.00 79 1016.3
20180721055200 72 225 0.0 0.0 0.00 0.00 0.00 78 1016.3
20180721054701 72 202 0.0 3.0 0.00 0.00 0.00 79 1016.3
20180721054200 72 180 0.0 3.0 0.00 0.00 0.00 79 1016.3
20180721053700 72 225 0.0 3.0 0.00 0.00 0.00 79 1016.5
20180721053200 72 180 0.0 3.0 0.00 0.00 0.00 79 1016.6
20180721052700 72 247 0.0 3.0 0.00 0.00 0.00 79 1016.6
20180721052200 72 225 0.0 0.0 0.00 0.00 0.00 79 1016.6
20180721051914 72 225 0.0 0.0 0.00 0.00 0.00 78 1016.6
20180721051200 73 225 0.0 0.0 0.00 0.00 0.00 78 1016.7
20180721050700 73 225 0.0 0.0 0.00 0.00 0.00 78 1016.7
20180721050200 73 180 0.0 0.0 0.00 0.00 0.00 78 1016.7
20180721045701 73 135 0.0 0.0 0.00 0.00 0.00 78 1016.6
20180721045200 73 157 0.0 2.0 0.00 0.00 0.00 78 1016.7
20180721044701 73 180 0.0 3.0 0.00 0.00 0.00 78 1016.7
20180721044200 73 202 0.0 3.0 0.00 0.00 0.00 78 1016.7
20180721043700 73 157 0.0 0.0 0.00 0.00 0.00 78 1016.6
20180721043200 73 225 0.0 0.0 0.00 0.00 0.00 78 1016.6
20180721042700 73 225 0.0 0.0 0.00 0.00 0.00 78 1016.6
20180721042200 73 202 0.0 0.0 0.00 0.00 0.00 78 1016.6
20180721041700 73 225 0.0 3.0 0.00 0.00 0.00 78 1016.4
20180721041200 73 337 0.0 3.0 0.00 0.00 0.00 78 1016.5
20180721040700 73 225 0.0 0.0 0.00 0.00 0.00 79 1016.5
20180721040200 73 225 0.0 0.0 0.00 0.00 0.00 78 1016.6
20180721035700 73 202 0.0 0.0 0.00 0.00 0.00 77 1016.5
20180721035201 73 225 0.0 0.0 0.00 0.00 0.00 77 1016.6
20180721034700 73 225 0.0 0.0 0.00 0.00 0.00 77 1016.6
20180721034200 73 225 0.0 2.0 0.00 0.00 0.00 76 1016.7
20180721033700 73 202 0.0 2.0 0.00 0.00 0.00 76 1016.7
20180721033200 73 180 0.0 4.0 0.00 0.00 0.00 76 1016.6
20180721032909 73 202 1.0 4.0 0.00 0.00 0.00 76 1016.7
20180721032200 73 157 0.0 2.0 0.00 0.00 0.00 75 1016.6
20180721031700 73 202 0.0 2.0 0.00 0.00 0.00 75 1016.5
20180721031200 73 180 0.0 1.0 0.00 0.00 0.00 75 1016.5
20180721030911 73 225 0.0 0.0 0.00 0.00 0.00 75 1016.6
20180721030200 73 225 0.0 0.0 0.00 0.00 0.00 74 1016.5
20180721025912 73 225 0.0 0.0 0.00 0.00 0.00 74 1016.5
20180721025200 72 225 0.0 0.0 0.00 0.00 0.00 75 1016.5
20180721024700 72 202 0.0 0.0 0.00 0.00 0.00 75 1016.4
20180721024200 72 225 0.0 0.0 0.00 0.00 0.00 75 1016.5
20180721023701 71 225 0.0 0.0 0.00 0.00 0.00 76 1016.4
20180721023200 71 225 0.0 0.0 0.00 0.00 0.00 76 1016.4
20180721022700 71 225 0.0 0.0 0.00 0.00 0.00 76 1016.3
20180721022413 71 225 0.0 0.0 0.00 0.00 0.00 76 1016.3
20180721021700 71 225 0.0 0.0 0.00 0.00 0.00 75 1016.3
20180721021200 71 225 0.0 0.0 0.00 0.00 0.00 75 1016.5
20180721020700 71 225 0.0 0.0 0.00 0.00 0.00 75 1016.5
20180721020201 71 225 0.0 0.0 0.00 0.00 0.00 75 1016.5
20180721015913 71 225 0.0 0.0 0.00 0.00 0.00 74 1016.5
20180721015200 71 225 0.0 0.0 0.00 0.00 0.00 74 1016.5
20180721014700 71 225 0.0 0.0 0.00 0.00 0.00 72 1016.6
20180721014200 71 225 0.0 0.0 0.00 0.00 0.00 73 1016.5
20180721013700 71 180 0.0 0.0 0.00 0.00 0.00 72 1016.5
20180721013413 71 180 0.0 0.0 0.00 0.00 0.00 72 1016.5
20180721012911 72 180 0.0 0.0 0.00 0.00 0.00 71 1016.5
20180721012414 72 180 0.0 0.0 0.00 0.00 0.00 69 1016.6
20180721011700 72 180 0.0 0.0 0.00 0.00 0.00 68 1016.8
20180721011200 73 180 0.0 0.0 0.00 0.00 0.00 66 1016.8
20180721010913 73 180 0.0 0.0 0.00 0.00 0.00 65 1016.7
20180721010200 73 180 0.0 0.0 0.00 0.00 0.00 64 1016.6
20180721005700 74 180 0.0 0.0 0.00 0.00 0.00 64 1016.6
20180721005200 74 180 0.0 0.0 0.00 0.00 0.00 61 1016.6
20180721004700 75 180 0.0 0.0 0.00 0.00 0.00 60 1016.5
20180721004200 75 180 0.0 0.0 0.00 0.00 0.00 58 1016.5
20180721003911 76 180 0.0 0.0 0.00 0.00 0.00 57 1016.4
20180721003200 76 180 0.0 0.0 0.00 0.00 0.00 56 1016.5
20180721002911 77 180 0.0 0.0 0.00 0.00 0.00 55 1016.5
20180721002200 77 180 0.0 0.0 0.00 0.00 0.00 54 1016.6
20180721001700 77 180 0.0 1.0 0.00 0.00 0.00 53 1016.5
20180721001200 78 202 0.0 1.0 0.00 0.00 0.00 54 1016.3
20180721000913 78 225 0.0 1.0 0.00 0.00 0.00 53 1016.4
20180721000200 78 225 0.0 2.0 0.00 0.00 0.00 53 1016.3
20180720235701 79 202 0.0 2.0 0.00 0.00 0.00 52 1016.3
20180720235200 79 202 0.0 4.0 0.00 0.00 0.00 53 1016.4
20180720234700 79 180 0.0 4.0 0.00 0.00 0.00 52 1016.3
20180720234201 79 180 0.0 2.0 0.00 0.00 0.00 54 1016.4
20180720233701 79 157 0.0 4.0 0.00 0.00 0.00 54 1016.5
20180720233200 79 202 0.0 4.0 0.00 0.00 0.00 53 1016.6
20180720232700 79 225 0.0 1.0 0.00 0.00 0.00 54 1016.6
20180720232201 79 225 0.0 0.0 0.00 0.00 0.00 53 1016.5
20180720231701 79 180 0.0 1.0 0.00 0.00 0.00 53 1016.5
20180720231200 79 202 0.0 1.0 0.00 0.00 0.00 52 1016.5
20180720230700 79 202 0.0 1.0 0.00 0.00 0.00 52 1016.5
20180720230200 80 180 0.0 1.0 0.00 0.00 0.00 52 1016.5
20180720225700 80 157 0.0 2.0 0.00 0.00 0.00 52 1016.5
20180720225200 80 180 0.0 3.0 0.00 0.00 0.00 53 1016.5
20180720224700 80 180 1.0 3.0 0.00 0.00 0.00 54 1016.4
20180720224200 81 180 0.0 1.0 0.00 0.00 0.00 53 1016.4
20180720223700 81 202 0.0 0.0 0.00 0.00 0.00 53 1016.3
20180720223200 81 180 0.0 3.0 0.00 0.00 0.00 53 1016.2
20180720222700 81 180 0.0 3.0 0.00 0.00 0.00 53 1016.2
20180720222200 81 202 0.0 2.0 0.00 0.00 0.00 54 1016.2
20180720221914 81 225 1.0 5.0 0.00 0.00 0.00 54 1016.2
20180720221200 81 202 0.0 5.0 0.00 0.00 0.00 53 1016.2
20180720220700 81 202 2.0 5.0 0.00 0.00 0.00 53 1016.2
20180720220200 81 180 0.0 4.0 0.00 0.00 0.00 52 1016.3
20180720215700 81 180 1.0 4.0 0.00 0.00 0.00 54 1016.3
20180720215200 81 180 0.0 4.0 0.00 0.00 0.00 53 1016.4
20180720214911 81 202 1.0 4.0 0.00 0.00 0.00 54 1016.5
20180720214200 81 180 0.0 2.0 0.00 0.00 0.00 54 1016.5
20180720213700 81 202 1.0 4.0 0.00 0.00 0.00 53 1016.5
20180720213200 81 315 1.0 4.0 0.00 0.00 0.00 55 1016.4
20180720212700 81 180 0.0 3.0 0.00 0.00 0.00 55 1016.3
20180720212200 81 202 0.0 3.0 0.00 0.00 0.00 54 1016.5
20180720211914 81 225 0.0 2.0 0.00 0.00 0.00 54 1016.5
20180720211200 82 180 0.0 5.0 0.00 0.00 0.00 56 1016.6
20180720210700 82 157 0.0 5.0 0.00 0.00 0.00 56 1016.6
20180720210413 82 202 0.0 1.0 0.00 0.00 0.00 56 1016.7
20180720205700 82 180 0.0 3.0 0.00 0.00 0.00 54 1016.7